Alma Center, WI

10:45 AM CST on March 01, 2015 (GMT -0600)
Marshfield Municipal | Change Station
CLOSE
Current Station
Airport
Location: Marshfield,
Elevation: 1276 ft
Nearby Weather Stations

Elev 1276 ft 44.64 °N, 90.19 °W | Updated 51 minutes ago

Overcast
Overcast
13 °F
Feels Like 1 °F
N
9
Wind Variable Wind from WSW

Today
High -- | Low -- °F
--% Chance of Precip.
Yesterday
High -- | Low -- °F
Precip. -- in
6:41 AM 5:51 PM
Waxing Gibbous, 86% visible
Pressure 30.30 in
Visibility 3.0 miles
Clouds Overcast 1000 ft
Windchill 1 °F
Dew Point 8 °F
Humidity 81%
Rainfall 0.00 in
Snow Depth Not available.
UV 1 out of 12
Pollen .40 out of 12
Air Quality Not available.
Flu Activity Not available.
METAR KMFI 011554Z AUTO 24008KT 3SM HZ OVC010 M11/M13 A3022 RMK AO2 SNE45 SLP261 P0000 T11061133

More Conditions Fewer Conditions

Pressure 30.30 in
Visibility 3.0 miles
Clouds Overcast 1000 ft
Windchill 1 °F
Dew Point 8 °F
Humidity 81%
Rainfall 0.00 in
Snow Depth Not available.
UV 1 out of 12
Pollen .40 out of 12
Air Quality Not available.
Flu Activity Not available.
METAR KMFI 011554Z AUTO 24008KT 3SM HZ OVC010 M11/M13 A3022 RMK AO2 SNE45 SLP261 P0000 T11061133

More Conditions Fewer Conditions

10-Day Weather Forecast

Almanac

Astronomy

Mar. 01, 2015 Rise Set
Actual Time
Civil Twilight
Nautical Twilight
Astronomical Twilight
Moon
Length of Visible Light
Length of Day
Tomorrow will be .
, % of the Moon is Illuminated

Today's Extremes

State Highs State Lows

Community

WunderPhotos

Upload Photos

1,801,451 photos uploaded!

WunderBlogs® & News

Nearby

Air Quality

  Air Quality AQ Index Pollutant
Not available.

Snow Depth

Station Depth Elevation

Earthquake Activity

City Distance Mag. Time & Date
Minimum magnitude displayed is 2.5.

Coastal Water Temperatures

Place Temperature

Nearby Weather Stations